RPC6432 RPVE-RPVV
Flight info
| Callsign | RPC6432 |
|---|---|
| Flight time | 0h 49m |
| Altitude | 8000 |
| Route | KABOK |
| Aircraft | BE36/L-BDFGLORY/S |
Departure
| Time | 2026-04-21 01:51 |
|---|---|
| Airport | Godofredo P. Ramos Airport (RPVE) |
Arrival
| Time | 2026-04-21 02:41 |
|---|---|
| Airport | Francisco B. Reyes (Busuanga) Airport (RPVV) |
| Time | Latitude | Longitude | Altitude | Speed | Heading |
|---|---|---|---|---|---|
| 2026-04-21 01:34 | 11.92578 | 121.96279 | 20 ft | 0 kts | 63° |
| 2026-04-21 01:46 | 11.92581 | 121.96281 | 20 ft | 1 kts | 5° |
| 2026-04-21 01:46 | 11.92583 | 121.96273 | 20 ft | 3 kts | 232° |
| 2026-04-21 01:47 | 11.92562 | 121.96234 | 20 ft | 6 kts | 289° |
| 2026-04-21 01:47 | 11.92611 | 121.96205 | 20 ft | 10 kts | 334° |
| 2026-04-21 01:47 | 11.92672 | 121.96188 | 20 ft | 13 kts | 333° |
| 2026-04-21 01:47 | 11.92738 | 121.96153 | 20 ft | 12 kts | 333° |
| 2026-04-21 01:48 | 11.92779 | 121.96132 | 20 ft | 12 kts | 333° |
| 2026-04-21 01:48 | 11.92792 | 121.96066 | 21 ft | 15 kts | 242° |
| 2026-04-21 01:48 | 11.92730 | 121.95943 | 21 ft | 23 kts | 242° |
| 2026-04-21 01:48 | 11.92642 | 121.95770 | 21 ft | 31 kts | 242° |
| 2026-04-21 01:49 | 11.92532 | 121.95551 | 19 ft | 38 kts | 243° |
| 2026-04-21 01:49 | 11.92408 | 121.95302 | 19 ft | 36 kts | 242° |
| 2026-04-21 01:49 | 11.92328 | 121.95148 | 19 ft | 14 kts | 227° |
| 2026-04-21 01:49 | 11.92305 | 121.95102 | 20 ft | 6 kts | 0° |
| 2026-04-21 01:50 | 11.92309 | 121.95106 | 20 ft | 0 kts | 62° |
| 2026-04-21 01:50 | 11.92383 | 121.95253 | 19 ft | 56 kts | 63° |
| 2026-04-21 01:50 | 11.92640 | 121.95756 | 54 ft | 97 kts | 63° |
| 2026-04-21 01:51 | 11.92968 | 121.96389 | 306 ft | 104 kts | 61° |
| 2026-04-21 01:51 | 11.93320 | 121.97045 | 614 ft | 106 kts | 58° |
| 2026-04-21 01:51 | 11.93942 | 121.97398 | 867 ft | 112 kts | 358° |
| 2026-04-21 01:51 | 11.94682 | 121.97106 | 1144 ft | 112 kts | 333° |
| 2026-04-21 01:52 | 11.95368 | 121.96698 | 1377 ft | 118 kts | 333° |
| 2026-04-21 01:52 | 11.96490 | 121.95545 | 1851 ft | 129 kts | 274° |
| 2026-04-21 01:52 | 11.96278 | 121.94639 | 2044 ft | 135 kts | 247° |
| 2026-04-21 01:53 | 11.95885 | 121.93765 | 2268 ft | 136 kts | 243° |
| 2026-04-21 01:53 | 11.95458 | 121.92872 | 2593 ft | 145 kts | 242° |
| 2026-04-21 01:53 | 11.94997 | 121.91948 | 2903 ft | 147 kts | 239° |
| 2026-04-21 01:53 | 11.94598 | 121.90980 | 3075 ft | 152 kts | 261° |
| 2026-04-21 01:54 | 11.94658 | 121.89915 | 3305 ft | 150 kts | 278° |
| 2026-04-21 01:54 | 11.94796 | 121.88847 | 3475 ft | 153 kts | 279° |
| 2026-04-21 01:54 | 11.94919 | 121.87767 | 3690 ft | 152 kts | 277° |
| 2026-04-21 01:54 | 11.95029 | 121.86680 | 3863 ft | 154 kts | 278° |
| 2026-04-21 01:55 | 11.95122 | 121.85588 | 4043 ft | 155 kts | 275° |
| 2026-04-21 01:55 | 11.95176 | 121.84483 | 4214 ft | 156 kts | 272° |
| 2026-04-21 01:55 | 11.95199 | 121.83370 | 4360 ft | 159 kts | 272° |
| 2026-04-21 01:55 | 11.95222 | 121.82230 | 4504 ft | 160 kts | 271° |
| 2026-04-21 01:56 | 11.95222 | 121.81103 | 4679 ft | 159 kts | 270° |
| 2026-04-21 01:56 | 11.95231 | 121.79977 | 4850 ft | 159 kts | 271° |
| 2026-04-21 01:56 | 11.95251 | 121.78851 | 4998 ft | 159 kts | 271° |
| 2026-04-21 01:56 | 11.95277 | 121.77722 | 5168 ft | 158 kts | 271° |
| 2026-04-21 01:57 | 11.95300 | 121.76600 | 5334 ft | 158 kts | 271° |
| 2026-04-21 01:57 | 11.95303 | 121.75485 | 5505 ft | 156 kts | 270° |
| 2026-04-21 01:57 | 11.95309 | 121.74381 | 5691 ft | 155 kts | 271° |
| 2026-04-21 01:57 | 11.95340 | 121.73277 | 5838 ft | 156 kts | 272° |
| 2026-04-21 01:58 | 11.95374 | 121.72167 | 5991 ft | 157 kts | 272° |
| 2026-04-21 01:58 | 11.95398 | 121.71055 | 6146 ft | 157 kts | 271° |
| 2026-04-21 01:58 | 11.95413 | 121.69942 | 6300 ft | 156 kts | 271° |
| 2026-04-21 01:58 | 11.95428 | 121.68834 | 6453 ft | 156 kts | 271° |
| 2026-04-21 01:59 | 11.95448 | 121.67729 | 6607 ft | 155 kts | 271° |
| 2026-04-21 01:59 | 11.95473 | 121.66626 | 6762 ft | 155 kts | 271° |
| 2026-04-21 01:59 | 11.95492 | 121.65530 | 6914 ft | 154 kts | 271° |
| 2026-04-21 01:59 | 11.95508 | 121.64436 | 7066 ft | 154 kts | 271° |
| 2026-04-21 02:00 | 11.95526 | 121.63345 | 7202 ft | 154 kts | 271° |
| 2026-04-21 02:00 | 11.95545 | 121.62246 | 7330 ft | 155 kts | 271° |
| 2026-04-21 02:00 | 11.95565 | 121.61143 | 7458 ft | 156 kts | 271° |
| 2026-04-21 02:00 | 11.95585 | 121.60039 | 7587 ft | 155 kts | 271° |
| 2026-04-21 02:01 | 11.95603 | 121.58933 | 7716 ft | 156 kts | 271° |
| 2026-04-21 02:01 | 11.95621 | 121.57823 | 7843 ft | 157 kts | 271° |
| 2026-04-21 02:01 | 11.95640 | 121.56708 | 7969 ft | 157 kts | 271° |
| 2026-04-21 02:01 | 11.95658 | 121.55590 | 8095 ft | 158 kts | 271° |
| 2026-04-21 02:02 | 11.95679 | 121.54464 | 8220 ft | 160 kts | 271° |
| 2026-04-21 02:02 | 11.95699 | 121.53308 | 8268 ft | 165 kts | 271° |
| 2026-04-21 02:02 | 11.95718 | 121.52140 | 8288 ft | 167 kts | 271° |
| 2026-04-21 02:02 | 11.95737 | 121.50940 | 8296 ft | 166 kts | 271° |
| 2026-04-21 02:03 | 11.95756 | 121.49776 | 8297 ft | 166 kts | 271° |
| 2026-04-21 02:03 | 11.95774 | 121.48588 | 8288 ft | 169 kts | 271° |
| 2026-04-21 02:03 | 11.95798 | 121.47384 | 8280 ft | 170 kts | 271° |
| 2026-04-21 02:03 | 11.95819 | 121.46172 | 8280 ft | 171 kts | 271° |
| 2026-04-21 02:04 | 11.95837 | 121.44953 | 8276 ft | 172 kts | 271° |
| 2026-04-21 02:04 | 11.95855 | 121.43730 | 8276 ft | 172 kts | 271° |
| 2026-04-21 02:04 | 11.95876 | 121.42503 | 8274 ft | 173 kts | 271° |
| 2026-04-21 02:04 | 11.95898 | 121.41276 | 8274 ft | 173 kts | 271° |
| 2026-04-21 02:05 | 11.95912 | 121.40446 | 8274 ft | 173 kts | 271° |
| 2026-04-21 02:05 | 11.95931 | 121.39217 | 8275 ft | 173 kts | 271° |
| 2026-04-21 02:05 | 11.95950 | 121.37989 | 8276 ft | 173 kts | 271° |
| 2026-04-21 02:05 | 11.95970 | 121.36778 | 8276 ft | 173 kts | 271° |
| 2026-04-21 02:06 | 11.95991 | 121.35533 | 8277 ft | 173 kts | 271° |
| 2026-04-21 02:06 | 11.96010 | 121.34320 | 8276 ft | 173 kts | 271° |
| 2026-04-21 02:06 | 11.96030 | 121.33092 | 8276 ft | 173 kts | 271° |
| 2026-04-21 02:06 | 11.96050 | 121.31864 | 8275 ft | 173 kts | 271° |
| 2026-04-21 02:07 | 11.96070 | 121.30636 | 8276 ft | 173 kts | 271° |
| 2026-04-21 02:07 | 11.96089 | 121.29393 | 8276 ft | 173 kts | 271° |
| 2026-04-21 02:07 | 11.96108 | 121.28164 | 8275 ft | 173 kts | 271° |
| 2026-04-21 02:07 | 11.96128 | 121.26953 | 8275 ft | 173 kts | 271° |
| 2026-04-21 02:08 | 11.96148 | 121.25726 | 8277 ft | 173 kts | 271° |
| 2026-04-21 02:08 | 11.96167 | 121.24500 | 8277 ft | 173 kts | 271° |
| 2026-04-21 02:08 | 11.96186 | 121.23272 | 8276 ft | 173 kts | 271° |
| 2026-04-21 02:08 | 11.96206 | 121.22045 | 8275 ft | 173 kts | 271° |
| 2026-04-21 02:09 | 11.96225 | 121.20821 | 8275 ft | 173 kts | 271° |
| 2026-04-21 02:09 | 11.96244 | 121.19595 | 8277 ft | 172 kts | 271° |
| 2026-04-21 02:09 | 11.96264 | 121.18371 | 8275 ft | 172 kts | 271° |
| 2026-04-21 02:09 | 11.96282 | 121.17149 | 8275 ft | 172 kts | 271° |
| 2026-04-21 02:10 | 11.96301 | 121.15927 | 8277 ft | 172 kts | 271° |
| 2026-04-21 02:10 | 11.96320 | 121.14704 | 8277 ft | 172 kts | 271° |
| 2026-04-21 02:10 | 11.96339 | 121.13480 | 8276 ft | 172 kts | 271° |
| 2026-04-21 02:10 | 11.96358 | 121.12258 | 8275 ft | 172 kts | 271° |
| 2026-04-21 02:11 | 11.96376 | 121.11032 | 8275 ft | 172 kts | 271° |
| 2026-04-21 02:11 | 11.96395 | 121.09810 | 8276 ft | 172 kts | 271° |
| 2026-04-21 02:11 | 11.96414 | 121.08587 | 8276 ft | 172 kts | 271° |
| 2026-04-21 02:11 | 11.96432 | 121.07365 | 8276 ft | 172 kts | 271° |
| 2026-04-21 02:12 | 11.96451 | 121.06142 | 8277 ft | 172 kts | 271° |
| 2026-04-21 02:12 | 11.96470 | 121.04920 | 8277 ft | 172 kts | 271° |
| 2026-04-21 02:12 | 11.96488 | 121.03696 | 8276 ft | 172 kts | 271° |
| 2026-04-21 02:12 | 11.96506 | 121.02473 | 8276 ft | 172 kts | 271° |
| 2026-04-21 02:13 | 11.96525 | 121.01250 | 8277 ft | 172 kts | 271° |
| 2026-04-21 02:13 | 11.96543 | 121.00026 | 8277 ft | 172 kts | 271° |
| 2026-04-21 02:13 | 11.96562 | 120.98802 | 8276 ft | 172 kts | 271° |
| 2026-04-21 02:13 | 11.96579 | 120.97578 | 8276 ft | 172 kts | 271° |
| 2026-04-21 02:14 | 11.96597 | 120.96356 | 8280 ft | 172 kts | 271° |
| 2026-04-21 02:14 | 11.96616 | 120.95134 | 8283 ft | 172 kts | 271° |
| 2026-04-21 02:14 | 11.96634 | 120.93913 | 8285 ft | 172 kts | 271° |
| 2026-04-21 02:14 | 11.96651 | 120.92707 | 8285 ft | 172 kts | 271° |
| 2026-04-21 02:15 | 11.96669 | 120.91484 | 8286 ft | 172 kts | 271° |
| 2026-04-21 02:15 | 11.96687 | 120.90262 | 8286 ft | 172 kts | 271° |
| 2026-04-21 02:15 | 11.96705 | 120.89043 | 8285 ft | 172 kts | 271° |
| 2026-04-21 02:15 | 11.96723 | 120.87819 | 8285 ft | 172 kts | 271° |
| 2026-04-21 02:16 | 11.96740 | 120.86594 | 8286 ft | 173 kts | 271° |
| 2026-04-21 02:16 | 11.96759 | 120.85367 | 8286 ft | 173 kts | 271° |
| 2026-04-21 02:16 | 11.96776 | 120.84141 | 8285 ft | 173 kts | 271° |
| 2026-04-21 02:16 | 11.96793 | 120.82915 | 8284 ft | 173 kts | 271° |
| 2026-04-21 02:17 | 11.96810 | 120.81686 | 8285 ft | 173 kts | 271° |
| 2026-04-21 02:17 | 11.96828 | 120.80457 | 8286 ft | 173 kts | 271° |
| 2026-04-21 02:17 | 11.96847 | 120.79227 | 8286 ft | 173 kts | 271° |
| 2026-04-21 02:17 | 11.96863 | 120.77999 | 8285 ft | 173 kts | 271° |
| 2026-04-21 02:18 | 11.96880 | 120.76770 | 8287 ft | 173 kts | 271° |
| 2026-04-21 02:18 | 11.96898 | 120.75539 | 8286 ft | 173 kts | 271° |
| 2026-04-21 02:18 | 11.96915 | 120.74308 | 8285 ft | 173 kts | 271° |
| 2026-04-21 02:18 | 11.96932 | 120.73078 | 8285 ft | 173 kts | 271° |
| 2026-04-21 02:19 | 11.96949 | 120.71845 | 8285 ft | 173 kts | 271° |
| 2026-04-21 02:19 | 11.96967 | 120.70614 | 8286 ft | 173 kts | 271° |
| 2026-04-21 02:19 | 11.96984 | 120.69382 | 8285 ft | 173 kts | 271° |
| 2026-04-21 02:19 | 11.96999 | 120.68275 | 8285 ft | 173 kts | 271° |
| 2026-04-21 02:20 | 11.97234 | 120.67069 | 8286 ft | 172 kts | 289° |
| 2026-04-21 02:20 | 11.97616 | 120.65909 | 8287 ft | 172 kts | 290° |
| 2026-04-21 02:20 | 11.97979 | 120.64743 | 8286 ft | 173 kts | 287° |
| 2026-04-21 02:20 | 11.98277 | 120.63555 | 8286 ft | 173 kts | 285° |
| 2026-04-21 02:21 | 11.98568 | 120.62363 | 8287 ft | 173 kts | 285° |
| 2026-04-21 02:21 | 11.98879 | 120.61175 | 8287 ft | 173 kts | 287° |
| 2026-04-21 02:21 | 11.99200 | 120.59987 | 8285 ft | 173 kts | 287° |
| 2026-04-21 02:21 | 11.99514 | 120.58799 | 8285 ft | 173 kts | 286° |
| 2026-04-21 02:22 | 11.99820 | 120.57610 | 8285 ft | 173 kts | 286° |
| 2026-04-21 02:22 | 12.00128 | 120.56421 | 8286 ft | 173 kts | 286° |
| 2026-04-21 02:22 | 12.00440 | 120.55233 | 8285 ft | 173 kts | 286° |
| 2026-04-21 02:22 | 12.00752 | 120.54043 | 8285 ft | 173 kts | 286° |
| 2026-04-21 02:23 | 12.01062 | 120.52853 | 8286 ft | 174 kts | 286° |
| 2026-04-21 02:23 | 12.01373 | 120.51661 | 8287 ft | 174 kts | 286° |
| 2026-04-21 02:23 | 12.01684 | 120.50467 | 8287 ft | 174 kts | 286° |
| 2026-04-21 02:23 | 12.01996 | 120.49271 | 8287 ft | 174 kts | 286° |
| 2026-04-21 02:24 | 12.02302 | 120.48100 | 8287 ft | 175 kts | 286° |
| 2026-04-21 02:24 | 12.02614 | 120.46904 | 8286 ft | 174 kts | 286° |
| 2026-04-21 02:24 | 12.02926 | 120.45707 | 8286 ft | 174 kts | 286° |
| 2026-04-21 02:24 | 12.03238 | 120.44510 | 8286 ft | 174 kts | 286° |
| 2026-04-21 02:25 | 12.03551 | 120.43312 | 8286 ft | 175 kts | 286° |
| 2026-04-21 02:25 | 12.03862 | 120.42113 | 8286 ft | 175 kts | 286° |
| 2026-04-21 02:25 | 12.04173 | 120.40915 | 8285 ft | 175 kts | 286° |
| 2026-04-21 02:25 | 12.04487 | 120.39717 | 8284 ft | 174 kts | 286° |
| 2026-04-21 02:26 | 12.04799 | 120.38519 | 8285 ft | 175 kts | 286° |
| 2026-04-21 02:26 | 12.05111 | 120.37321 | 8285 ft | 174 kts | 286° |
| 2026-04-21 02:26 | 12.05422 | 120.36123 | 8285 ft | 175 kts | 286° |
| 2026-04-21 02:26 | 12.05734 | 120.34924 | 8285 ft | 174 kts | 286° |
| 2026-04-21 02:27 | 12.06046 | 120.33728 | 8292 ft | 175 kts | 286° |
| 2026-04-21 02:27 | 12.06360 | 120.32527 | 8302 ft | 175 kts | 286° |
| 2026-04-21 02:27 | 12.06677 | 120.31309 | 8336 ft | 180 kts | 285° |
| 2026-04-21 02:27 | 12.06996 | 120.30062 | 8271 ft | 184 kts | 285° |
| 2026-04-21 02:28 | 12.07327 | 120.28787 | 8115 ft | 187 kts | 286° |
| 2026-04-21 02:28 | 12.07666 | 120.27508 | 7904 ft | 187 kts | 286° |
| 2026-04-21 02:28 | 12.08002 | 120.26225 | 7704 ft | 188 kts | 285° |
| 2026-04-21 02:28 | 12.08332 | 120.24927 | 7535 ft | 190 kts | 286° |
| 2026-04-21 02:29 | 12.08673 | 120.23627 | 7336 ft | 190 kts | 285° |
| 2026-04-21 02:29 | 12.09010 | 120.22318 | 7136 ft | 191 kts | 286° |
| 2026-04-21 02:29 | 12.09349 | 120.21007 | 6914 ft | 190 kts | 286° |
| 2026-04-21 02:29 | 12.09693 | 120.19704 | 6676 ft | 190 kts | 286° |
| 2026-04-21 02:30 | 12.10029 | 120.18421 | 6453 ft | 190 kts | 286° |
| 2026-04-21 02:30 | 12.10372 | 120.17116 | 6229 ft | 190 kts | 286° |
| 2026-04-21 02:30 | 12.10715 | 120.15811 | 5998 ft | 190 kts | 286° |
| 2026-04-21 02:30 | 12.11104 | 120.14521 | 5791 ft | 190 kts | 299° |
| 2026-04-21 02:31 | 12.12018 | 120.13625 | 5548 ft | 180 kts | 342° |
| 2026-04-21 02:31 | 12.13192 | 120.13568 | 5317 ft | 167 kts | 25° |
| 2026-04-21 02:31 | 12.13981 | 120.14342 | 5134 ft | 158 kts | 71° |
| 2026-04-21 02:31 | 12.13984 | 120.15449 | 4974 ft | 157 kts | 98° |
| 2026-04-21 02:32 | 12.13735 | 120.16531 | 4730 ft | 155 kts | 102° |
| 2026-04-21 02:32 | 12.13444 | 120.17557 | 4608 ft | 146 kts | 104° |
| 2026-04-21 02:32 | 12.13150 | 120.18529 | 4499 ft | 141 kts | 104° |
| 2026-04-21 02:32 | 12.12853 | 120.19478 | 4420 ft | 138 kts | 104° |
| 2026-04-21 02:33 | 12.12325 | 120.20274 | 4288 ft | 144 kts | 142° |
| 2026-04-21 02:33 | 12.11306 | 120.20340 | 4137 ft | 158 kts | 194° |
| 2026-04-21 02:33 | 12.10503 | 120.19569 | 4004 ft | 165 kts | 243° |
| 2026-04-21 02:33 | 12.10387 | 120.18428 | 3872 ft | 162 kts | 278° |
| 2026-04-21 02:34 | 12.10526 | 120.17296 | 3733 ft | 160 kts | 282° |
| 2026-04-21 02:34 | 12.10720 | 120.16171 | 3675 ft | 162 kts | 284° |
| 2026-04-21 02:34 | 12.10931 | 120.15025 | 3635 ft | 165 kts | 284° |
| 2026-04-21 02:34 | 12.11150 | 120.13867 | 3571 ft | 166 kts | 284° |
| 2026-04-21 02:35 | 12.11452 | 120.12748 | 3498 ft | 164 kts | 297° |
| 2026-04-21 02:35 | 12.11885 | 120.11673 | 3450 ft | 162 kts | 296° |
| 2026-04-21 02:35 | 12.12339 | 120.10620 | 3317 ft | 161 kts | 304° |
| 2026-04-21 02:35 | 12.13072 | 120.09813 | 3275 ft | 151 kts | 334° |
| 2026-04-21 02:36 | 12.13998 | 120.09518 | 3245 ft | 135 kts | 8° |
| 2026-04-21 02:36 | 12.14893 | 120.09299 | 3340 ft | 137 kts | 346° |
| 2026-04-21 02:36 | 12.15695 | 120.08703 | 3288 ft | 150 kts | 323° |
| 2026-04-21 02:36 | 12.16364 | 120.07851 | 3122 ft | 159 kts | 309° |
| 2026-04-21 02:37 | 12.16767 | 120.06762 | 2948 ft | 167 kts | 287° |
| 2026-04-21 02:37 | 12.16872 | 120.05565 | 2826 ft | 171 kts | 272° |
| 2026-04-21 02:37 | 12.16663 | 120.04372 | 2640 ft | 170 kts | 246° |
| 2026-04-21 02:37 | 12.15958 | 120.03421 | 2501 ft | 169 kts | 212° |
| 2026-04-21 02:38 | 12.14905 | 120.02992 | 2256 ft | 161 kts | 179° |
| 2026-04-21 02:38 | 12.13851 | 120.03159 | 1971 ft | 148 kts | 144° |
| 2026-04-21 02:38 | 12.13099 | 120.03794 | 1761 ft | 136 kts | 121° |
| 2026-04-21 02:38 | 12.12644 | 120.04574 | 1678 ft | 119 kts | 110° |
| 2026-04-21 02:39 | 12.12334 | 120.05338 | 1509 ft | 113 kts | 104° |
| 2026-04-21 02:39 | 12.12118 | 120.06036 | 1299 ft | 93 kts | 99° |
| 2026-04-21 02:39 | 12.11992 | 120.06656 | 1066 ft | 87 kts | 103° |
| 2026-04-21 02:39 | 12.11931 | 120.07275 | 767 ft | 85 kts | 85° |
| 2026-04-21 02:40 | 12.11983 | 120.07851 | 635 ft | 79 kts | 83° |
| 2026-04-21 02:40 | 12.12028 | 120.08413 | 492 ft | 79 kts | 82° |
| 2026-04-21 02:40 | 12.12086 | 120.08959 | 345 ft | 76 kts | 81° |
| 2026-04-21 02:40 | 12.12136 | 120.09480 | 198 ft | 70 kts | 82° |
| 2026-04-21 02:41 | 12.12174 | 120.09881 | 178 ft | 43 kts | 84° |
| 2026-04-21 02:41 | 12.12193 | 120.10112 | 178 ft | 26 kts | 82° |
| 2026-04-21 02:41 | 12.12208 | 120.10184 | 177 ft | 4 kts | 72° |
| 2026-04-21 02:41 | 12.12199 | 120.10172 | 177 ft | 5 kts | 271° |
| 2026-04-21 02:42 | 12.12195 | 120.10123 | 178 ft | 8 kts | 265° |
| 2026-04-21 02:42 | 12.12188 | 120.10053 | 179 ft | 11 kts | 259° |
| 2026-04-21 02:42 | 12.12150 | 120.10001 | 179 ft | 11 kts | 220° |
| 2026-04-21 02:42 | 12.12100 | 120.09950 | 179 ft | 8 kts | 249° |
| 2026-04-21 02:43 | 12.12093 | 120.09877 | 178 ft | 12 kts | 264° |
| 2026-04-21 02:43 | 12.12088 | 120.09829 | 178 ft | 1 kts | 264° |
| 2026-04-21 02:43 | 12.12082 | 120.09821 | 179 ft | 2 kts | 191° |
| 2026-04-21 02:44 | 12.12063 | 120.09822 | 179 ft | 5 kts | 174° |
| 2026-04-21 02:44 | 12.12046 | 120.09824 | 180 ft | 3 kts | 174° |
| 2026-04-21 02:44 | 12.12034 | 120.09826 | 180 ft | 4 kts | 174° |
| 2026-04-21 02:45 | 12.12029 | 120.09826 | 180 ft | 0 kts | 173° |